Time;durP1;ratioP1;P1;durP2;ratioP2;P2;SDS_P1;SDS_P2;PMS_P1;PMS_P2;Temp;Humidity;BMP_temperature;BMP_pressure;BME280_temperature;BME280_humidity;BME280_pressure;Samples;Min_cycle;Max_cycle;Signal;HPM_P1;HPM_P2
2021/11/15 00:00:59;;;;;;;32.53;24.00;;;;;;;7.97;95.77;102699.06;5095721;28;20278;-35
2021/11/15 00:03:26;;;;;;;31.58;21.67;;;;;;;8.05;95.64;102706.31;5095834;28;20028;-35
2021/11/15 00:05:52;;;;;;;33.92;21.38;;;;;;;8.08;95.67;102703.28;5096525;28;20424;-35
2021/11/15 00:08:17;;;;;;;31.83;21.53;;;;;;;7.95;94.46;102687.59;5095768;28;20111;-35
2021/11/15 00:10:43;;;;;;;28.43;21.30;;;;;;;8.04;94.98;102699.25;5095686;28;20028;-35
2021/11/15 00:13:09;;;;;;;28.17;20.60;;;;;;;8.04;95.41;102696.53;5095728;28;20048;-35
2021/11/15 00:15:34;;;;;;;;;;;;;;;8.08;94.55;102697.88;5095996;28;20453;-35
2021/11/15 00:18:00;;;;;;;28.75;20.35;;;;;;;8.02;94.64;102703.97;5095776;28;19912;-35
2021/11/15 00:20:27;;;;;;;27.75;20.88;;;;;;;7.85;94.61;102673.47;5095316;28;20520;-35
2021/11/15 00:22:53;;;;;;;26.08;19.05;;;;;;;7.90;94.89;102693.50;5094499;28;20039;-35
2021/11/15 00:25:19;;;;;;;29.58;20.50;;;;;;;7.83;94.85;102691.66;5095916;28;20383;-35
2021/11/15 00:27:45;;;;;;;30.02;19.98;;;;;;;7.96;94.63;102700.09;5095320;28;20106;-35
2021/11/15 00:30:12;;;;;;;26.55;19.05;;;;;;;7.96;95.20;102700.94;5095760;28;20467;-34
2021/11/15 00:32:38;;;;;;;26.02;19.30;;;;;;;7.91;95.10;102689.81;5095802;28;20027;-34
2021/11/15 00:35:06;;;;;;;28.35;19.92;;;;;;;7.83;95.00;102683.59;5095765;28;20020;-34
2021/11/15 00:37:31;;;;;;;26.65;18.42;;;;;;;7.94;94.75;102696.72;5095370;28;20077;-34
2021/11/15 00:39:56;;;;;;;26.37;19.23;;;;;;;7.80;94.55;102673.13;5095966;28;20032;-34
2021/11/15 00:42:22;;;;;;;28.40;18.30;;;;;;;7.91;95.16;102689.81;5095093;28;20115;-34
2021/11/15 00:44:48;;;;;;;25.23;18.30;;;;;;;7.89;94.72;102686.44;5095911;28;20035;-34
2021/11/15 00:47:13;;;;;;;23.88;17.27;;;;;;;7.89;94.36;102699.91;5094712;28;20035;-34
2021/11/15 00:49:39;;;;;;;24.93;19.23;;;;;;;7.87;94.05;102693.03;5095028;28;20452;-34
2021/11/15 00:52:04;;;;;;;25.10;18.57;;;;;;;7.81;93.83;102686.47;5093532;28;20032;-34
2021/11/15 00:54:30;;;;;;;27.80;18.50;;;;;;;7.73;93.83;102670.28;5094885;28;20024;-34
2021/11/15 00:56:55;;;;;;;26.30;18.58;;;;;;;7.86;93.93;102694.03;5094720;28;20028;-35
2021/11/15 00:59:21;;;;;;;26.00;19.90;;;;;;;7.83;94.05;102697.91;5094818;28;20107;-35
2021/11/15 01:01:46;;;;;;;25.70;18.40;;;;;;;7.82;93.75;102695.38;5094954;28;20035;-35
2021/11/15 01:04:12;;;;;;;25.92;18.95;;;;;;;7.82;94.46;102698.06;5095196;28;20452;-35
2021/11/15 01:06:37;;;;;;;24.03;18.50;;;;;;;7.84;94.30;102694.19;5094642;28;20487;-35
2021/11/15 01:09:04;;;;;;;24.07;18.20;;;;;;;7.75;94.07;102695.19;5094886;28;20261;-35
2021/11/15 01:11:29;;;;;;;24.35;17.48;;;;;;;7.84;94.66;102701.44;5094469;28;20048;-34
2021/11/15 01:13:55;;;;;;;25.00;18.73;;;;;;;7.78;93.99;102700.25;5094375;28;20072;-35
2021/11/15 01:16:22;;;;;;;26.35;18.42;;;;;;;7.77;92.88;102700.44;5094816;28;20373;-34
2021/11/15 01:18:50;;;;;;;;;;;;;;;7.85;93.79;102703.94;5095152;28;20039;-35
2021/11/15 01:21:16;;;;;;;25.23;17.98;;;;;;;7.79;93.16;102699.22;5094227;28;19915;-35
2021/11/15 01:23:42;;;;;;;23.70;17.15;;;;;;;7.79;93.41;102693.00;5094335;28;20042;-35
2021/11/15 01:26:08;;;;;;;23.90;17.33;;;;;;;7.75;92.51;102685.25;5094212;28;20031;-35
2021/11/15 01:28:35;;;;;;;23.53;17.53;;;;;;;7.81;93.04;102702.63;5094299;28;20032;-35
2021/11/15 01:31:00;;;;;;;26.33;18.42;;;;;;;7.71;92.21;102685.75;5094391;28;20024;-35
2021/11/15 01:33:26;;;;;;;23.38;17.63;;;;;;;7.82;92.52;102708.84;5094455;28;20466;-35
2021/11/15 01:35:51;;;;;;;23.30;17.23;;;;;;;7.83;92.94;102708.66;5094102;28;20027;-35
2021/11/15 01:38:16;;;;;;;24.77;17.83;;;;;;;7.82;92.92;102709.69;5094635;28;20024;-35
2021/11/15 01:40:42;;;;;;;23.50;17.50;;;;;;;7.82;92.52;102711.53;5094006;28;20028;-35
2021/11/15 01:43:07;;;;;;;22.17;17.15;;;;;;;7.70;92.54;102692.16;5094268;28;20020;-35
2021/11/15 01:45:36;;;;;;;25.50;18.60;;;;;;;7.81;93.43;102707.13;5093631;28;20035;-35
2021/11/15 01:48:04;;;;;;;23.60;18.27;;;;;;;7.77;92.65;102711.19;5093937;28;20032;-34
2021/11/15 01:50:32;;;;;;;23.33;18.13;;;;;;;7.62;92.06;102692.16;5094398;28;20116;-35
2021/11/15 01:52:59;;;;;;;21.42;17.20;;;;;;;7.73;92.49;102699.91;5093416;28;20514;-34
2021/11/15 01:55:24;;;;;;;;;;;;;;;7.72;91.76;102701.75;5094332;28;20544;-35
2021/11/15 01:57:52;;;;;;;24.05;17.35;;;;;;;7.66;91.55;102696.19;5093684;28;19916;-35
2021/11/15 02:00:22;;;;;;;24.00;18.52;;;;;;;7.54;91.20;102670.59;5094136;28;20460;-34
2021/11/15 02:02:48;;;;;;;24.42;18.65;;;;;;;7.63;91.25;102693.84;5093916;28;20028;-34
2021/11/15 02:05:14;;;;;;;24.90;19.52;;;;;;;7.64;91.36;102684.75;5093913;28;20047;-35
2021/11/15 02:07:39;;;;;;;26.43;19.67;;;;;;;7.58;91.60;102685.41;5094379;28;20028;-34
2021/11/15 02:10:08;;;;;;;28.97;21.50;;;;;;;7.52;91.48;102680.72;5093954;28;20024;-34
2021/11/15 02:12:33;;;;;;;26.73;20.33;;;;;;;7.48;91.99;102681.03;5093681;28;20458;-35
2021/11/15 02:14:59;;;;;;;28.33;20.97;;;;;;;7.46;92.16;102669.56;5093589;28;20028;-34
2021/11/15 02:17:24;;;;;;;30.43;21.57;;;;;;;7.51;92.13;102674.47;5093390;28;20028;-35
2021/11/15 02:19:51;;;;;;;29.77;22.20;;;;;;;7.51;92.18;102673.63;5093509;28;20380;-35
2021/11/15 02:22:17;;;;;;;30.33;21.92;;;;;;;7.54;92.76;102674.13;5093324;28;20097;-35
2021/11/15 02:24:44;;;;;;;32.30;25.00;;;;;;;7.44;92.78;102668.91;5093039;28;20480;-35
2021/11/15 02:27:10;;;;;;;31.10;23.35;;;;;;;7.47;92.17;102668.59;5093722;28;20036;-34
2021/11/15 02:29:38;;;;;;;28.88;22.85;;;;;;;7.39;92.30;102655.09;5094143;28;20038;-34
2021/11/15 02:32:04;;;;;;;31.63;24.30;;;;;;;7.45;92.13;102659.81;5093460;28;20104;-34
2021/11/15 02:34:29;;;;;;;32.53;24.48;;;;;;;7.42;92.46;102654.78;5093302;28;20031;-35
2021/11/15 02:36:55;;;;;;;28.77;21.40;;;;;;;7.45;93.17;102657.13;5093129;28;20028;-34
2021/11/15 02:39:20;;;;;;;33.08;23.92;;;;;;;7.48;93.29;102654.09;5093356;28;20064;-34
2021/11/15 02:41:46;;;;;;;29.88;23.85;;;;;;;7.47;93.34;102654.28;5093849;28;20424;-34
2021/11/15 02:44:11;;;;;;;30.37;23.70;;;;;;;7.37;92.47;102634.72;5093137;28;20137;-34
2021/11/15 02:46:37;;;;;;;29.23;23.27;;;;;;;7.46;93.36;102647.19;5094398;28;20038;-34
2021/11/15 02:49:03;;;;;;;31.65;23.83;;;;;;;7.45;93.99;102657.13;5097284;28;20099;-34
2021/11/15 02:51:29;;;;;;;30.92;23.73;;;;;;;7.38;93.58;102650.72;5097217;28;20032;-34
2021/11/15 02:53:54;;;;;;;28.67;22.67;;;;;;;7.36;94.33;102641.97;5097759;28;20032;-34
2021/11/15 02:56:20;;;;;;;33.42;26.40;;;;;;;7.32;93.95;102655.91;5097060;28;20114;-34
2021/11/15 02:58:46;;;;;;;32.10;23.83;;;;;;;7.33;93.66;102649.56;5096843;28;20043;-34
2021/11/15 03:01:17;;;;;;;31.58;24.50;;;;;;;7.21;93.97;102633.69;5095670;28;20047;-34
2021/11/15 03:03:44;;;;;;;32.88;25.05;;;;;;;7.31;93.95;102652.38;5097074;28;20119;-34
2021/11/15 03:06:09;;;;;;;;;;;;;;;7.35;93.76;102658.28;5097354;28;20472;-34
2021/11/15 03:08:35;;;;;;;35.85;26.02;;;;;;;7.26;93.23;102665.50;5096993;28;19915;-34
2021/11/15 03:11:04;;;;;;;32.00;23.77;;;;;;;7.25;93.39;102669.19;5096983;28;20028;-34
2021/11/15 03:13:34;;;;;;;33.15;24.55;;;;;;;7.28;94.12;102663.50;5097597;28;20422;-34
2021/11/15 03:15:59;;;;;;;33.17;23.50;;;;;;;7.23;93.25;102663.16;5096741;28;20024;-34
2021/11/15 03:18:28;;;;;;;36.80;27.58;;;;;;;7.15;93.36;102663.13;5097286;28;20111;-34
2021/11/15 03:20:57;;;;;;;32.40;24.17;;;;;;;7.11;94.17;102657.22;5096918;28;20342;-34
2021/11/15 03:23:27;;;;;;;34.38;26.08;;;;;;;7.10;93.93;102666.31;5096792;28;20028;-34
2021/11/15 03:25:54;;;;;;;32.20;24.08;;;;;;;7.10;94.25;102663.59;5096814;28;20032;-34
2021/11/15 03:28:22;;;;;;;30.90;23.75;;;;;;;7.07;93.87;102657.72;5097334;28;20028;-34
2021/11/15 03:30:53;;;;;;;32.40;24.77;;;;;;;7.08;94.08;102659.41;5096111;28;20511;-34
2021/11/15 03:33:20;;;;;;;31.23;24.05;;;;;;;7.07;94.58;102660.41;5096805;28;20085;-34
2021/11/15 03:35:46;;;;;;;31.17;24.10;;;;;;;7.10;94.63;102665.47;5097152;28;20024;-34
2021/11/15 03:38:12;;;;;;;34.40;25.45;;;;;;;6.99;95.00;102649.63;5096935;28;20028;-34
2021/11/15 03:40:37;;;;;;;34.85;25.00;;;;;;;7.13;95.10;102657.91;5095994;28;20342;-34
2021/11/15 03:43:05;;;;;;;33.05;24.83;;;;;;;7.11;94.18;102662.59;5096318;28;20036;-34
2021/11/15 03:45:32;;;;;;;33.38;24.20;;;;;;;7.11;94.41;102651.84;5096390;28;20395;-34
2021/11/15 03:47:59;;;;;;;36.33;27.45;;;;;;;6.98;94.23;102640.72;5096908;28;20024;-34
2021/11/15 03:50:25;;;;;;;30.05;22.85;;;;;;;7.03;95.28;102637.50;5096982;28;20349;-34
2021/11/15 03:52:52;;;;;;;34.05;26.05;;;;;;;7.05;94.78;102662.41;5096325;28;20035;-34
2021/11/15 03:55:20;;;;;;;34.58;25.67;;;;;;;7.08;95.24;102668.31;5096196;28;20379;-34
2021/11/15 03:57:46;;;;;;;32.75;25.48;;;;;;;6.93;94.43;102648.44;5094646;28;20387;-34
2021/11/15 04:00:16;;;;;;;34.47;25.38;;;;;;;7.00;94.68;102672.84;5095949;28;20036;-34
2021/11/15 04:02:43;;;;;;;33.80;24.67;;;;;;;7.02;94.96;102673.50;5095845;28;20030;-34
2021/11/15 04:05:10;;;;;;;34.53;25.75;;;;;;;7.02;94.55;102678.88;5095818;28;20495;-34
2021/11/15 04:07:42;;;;;;;34.00;24.77;;;;;;;7.05;94.92;102675.88;5095828;28;20039;-34
2021/11/15 04:10:21;;;;;;;35.83;26.48;;;;;;;7.05;95.67;102679.41;5095765;28;20054;-34
2021/11/15 04:12:47;;;;;;;35.35;25.10;;;;;;;7.04;95.16;102677.72;5095969;28;20468;-34
2021/11/15 04:15:13;;;;;;;35.13;26.20;;;;;;;7.04;95.16;102682.25;5095713;28;20130;-34
2021/11/15 04:17:40;;;;;;;33.03;25.35;;;;;;;7.00;95.37;102686.28;5095757;28;20024;-34
2021/11/15 04:20:08;;;;;;;35.97;26.17;;;;;;;6.96;94.88;102685.75;5095787;28;20030;-34
2021/11/15 04:22:35;;;;;;;35.70;26.80;;;;;;;6.89;95.20;102680.19;5095819;28;20024;-34
2021/11/15 04:25:06;;;;;;;33.47;26.42;;;;;;;6.82;94.59;102672.91;5095761;28;20038;-34
2021/11/15 04:27:32;;;;;;;34.00;25.75;;;;;;;6.90;94.86;102681.88;5095482;28;20027;-34
2021/11/15 04:29:57;;;;;;;37.72;24.48;;;;;;;6.94;94.57;102685.94;5095126;28;20368;-34
2021/11/15 04:32:23;;;;;;;31.80;23.87;;;;;;;6.99;95.52;102685.44;5095438;28;20073;-34
2021/11/15 04:34:48;;;;;;;32.77;24.20;;;;;;;7.02;95.30;102684.25;5095300;28;20024;-34
2021/11/15 04:37:14;;;;;;;30.80;24.63;;;;;;;7.01;94.98;102680.72;5094840;28;20289;-34
2021/11/15 04:39:39;;;;;;;35.87;25.37;;;;;;;6.85;95.64;102676.13;5095302;28;20463;-35
2021/11/15 04:42:05;;;;;;;33.27;24.87;;;;;;;6.93;95.02;102681.56;5095701;28;20490;-35
2021/11/15 04:44:30;;;;;;;35.08;25.80;;;;;;;6.90;94.92;102676.50;5095116;28;20076;-34
2021/11/15 04:46:55;;;;;;;31.87;24.33;;;;;;;6.88;95.39;102670.44;5095279;28;20036;-34
2021/11/15 04:49:21;;;;;;;36.60;26.13;;;;;;;6.89;95.27;102669.44;5095678;28;20107;-34
2021/11/15 04:51:46;;;;;;;32.60;25.33;;;;;;;6.95;94.99;102682.22;5094947;28;20024;-34
2021/11/15 04:54:14;;;;;;;32.57;25.30;;;;;;;6.91;95.21;102678.16;5095796;28;20028;-34
2021/11/15 04:56:39;;;;;;;34.75;25.92;;;;;;;6.89;94.88;102682.88;5094727;28;20113;-34
2021/11/15 04:59:05;;;;;;;34.45;25.20;;;;;;;6.86;95.07;102679.66;5094540;28;20036;-34
2021/11/15 05:01:30;;;;;;;33.45;25.85;;;;;;;6.83;95.42;102686.22;5094466;28;20109;-34
2021/11/15 05:03:56;;;;;;;30.80;24.33;;;;;;;6.67;95.00;102653.88;5095160;28;20024;-34
2021/11/15 05:06:22;;;;;;;30.87;23.67;;;;;;;6.88;94.77;102681.19;5094674;28;20115;-34
2021/11/15 05:08:48;;;;;;;32.30;24.13;;;;;;;6.87;94.98;102682.19;5094568;28;20506;-34
2021/11/15 05:11:13;;;;;;;37.20;25.25;;;;;;;6.89;95.82;102676.66;5094459;28;20039;-34
2021/11/15 05:13:39;;;;;;;30.77;23.67;;;;;;;6.87;95.01;102676.81;5094686;28;20046;-35
2021/11/15 05:16:04;;;;;;;31.57;23.30;;;;;;;6.89;95.08;102672.13;5094368;28;20073;-34
2021/11/15 05:18:30;;;;;;;30.80;24.70;;;;;;;6.79;95.29;102670.56;5095029;28;20036;-34
2021/11/15 05:20:55;;;;;;;31.73;24.50;;;;;;;6.83;94.69;102686.22;5094409;28;20023;-35
2021/11/15 05:23:20;;;;;;;34.33;26.33;;;;;;;6.82;95.38;102676.44;5094727;28;20107;-34
2021/11/15 05:25:46;;;;;;;30.90;23.30;;;;;;;6.85;95.12;102678.00;5093948;28;20270;-35
2021/11/15 05:28:11;;;;;;;34.73;28.00;;;;;;;6.78;94.85;102677.78;5094802;28;20039;-35
2021/11/15 05:30:37;;;;;;;34.40;25.87;;;;;;;6.76;95.61;102676.25;5094249;28;20361;-35
2021/11/15 05:33:02;;;;;;;34.13;26.17;;;;;;;6.79;95.36;102678.63;5094330;28;20066;-35
2021/11/15 05:35:28;;;;;;;31.20;23.27;;;;;;;6.86;95.58;102685.88;5094837;28;20106;-34
2021/11/15 05:37:55;;;;;;;32.37;25.30;;;;;;;6.83;95.54;102686.22;5093961;28;20092;-34
2021/11/15 05:40:23;;;;;;;32.63;24.42;;;;;;;6.85;95.17;102691.44;5094037;28;20020;-35
2021/11/15 05:42:49;;;;;;;33.63;26.27;;;;;;;6.76;94.66;102678.94;5093960;28;20028;-35
2021/11/15 05:45:16;;;;;;;33.60;24.58;;;;;;;6.74;95.62;102687.19;5094120;28;20457;-34
2021/11/15 05:47:41;;;;;;;;;;;;;;;6.80;95.54;102677.63;5094232;28;20028;-34
2021/11/15 05:50:08;;;;;;;31.50;24.63;;;;;;;6.76;95.48;102677.09;5094282;28;19915;-34
2021/11/15 05:52:39;;;;;;;30.80;24.75;;;;;;;6.79;95.20;102684.03;5094136;28;20362;-35
2021/11/15 05:55:05;;;;;;;32.78;24.33;;;;;;;6.79;95.61;102679.47;5093728;28;20035;-34
2021/11/15 05:57:30;;;;;;;32.60;24.77;;;;;;;6.74;95.97;102678.28;5093539;28;20020;-35
2021/11/15 05:59:56;;;;;;;29.67;21.97;;;;;;;6.79;95.29;102686.72;5093423;28;20361;-35
2021/11/15 06:02:21;;;;;;;30.90;23.83;;;;;;;6.80;95.59;102681.16;5093313;28;20031;-35
2021/11/15 06:04:46;;;;;;;31.37;23.43;;;;;;;6.81;95.24;102672.06;5094248;28;20057;-34
2021/11/15 06:07:12;;;;;;;27.97;21.83;;;;;;;6.86;95.74;102669.75;5093743;28;20044;-34
2021/11/15 06:09:37;;;;;;;30.50;24.07;;;;;;;6.85;95.38;102673.44;5094064;28;20036;-34
2021/11/15 06:12:03;;;;;;;31.80;24.30;;;;;;;6.70;93.95;102661.63;5094249;28;20031;-34
2021/11/15 06:14:29;;;;;;;31.08;24.25;;;;;;;6.74;94.50;102676.44;5094533;28;20055;-34
2021/11/15 06:16:54;;;;;;;30.80;24.25;;;;;;;6.70;94.13;102672.38;5093402;28;20356;-34
2021/11/15 06:19:19;;;;;;;36.10;24.23;;;;;;;6.62;94.14;102680.38;5093908;28;20028;-34
2021/11/15 06:21:45;;;;;;;33.50;23.80;;;;;;;6.64;94.49;102673.03;5093141;28;20032;-35
2021/11/15 06:24:10;;;;;;;37.83;26.80;;;;;;;6.43;94.63;102654.56;5093758;28;20028;-34
2021/11/15 06:26:36;;;;;;;31.00;23.43;;;;;;;6.61;94.58;102682.22;5093523;28;20028;-35
2021/11/15 06:29:01;;;;;;;35.13;25.30;;;;;;;6.65;94.91;102682.78;5093989;28;20024;-35
2021/11/15 06:31:26;;;;;;;32.77;25.17;;;;;;;6.54;95.20;102689.28;5093201;28;20063;-35
2021/11/15 06:33:52;;;;;;;34.50;25.10;;;;;;;6.56;94.89;102687.25;5093108;28;20039;-35
2021/11/15 06:36:22;;;;;;;36.30;24.43;;;;;;;6.62;95.60;102701.91;5093486;28;20028;-35
2021/11/15 06:38:48;;;;;;;31.70;23.40;;;;;;;6.58;94.43;102700.53;5093988;28;20035;-35
2021/11/15 06:41:13;;;;;;;33.63;25.33;;;;;;;6.50;94.87;102689.75;5093188;28;20024;-35
2021/11/15 06:43:39;;;;;;;32.47;23.47;;;;;;;6.61;95.20;102702.91;5093572;28;20032;-35
2021/11/15 06:46:04;;;;;;;32.23;25.20;;;;;;;6.64;95.05;102700.75;5093311;28;20037;-35
2021/11/15 06:48:33;;;;;;;34.03;24.07;;;;;;;6.68;94.72;102702.09;5093326;28;20028;-35
2021/11/15 06:50:58;;;;;;;36.30;25.20;;;;;;;6.58;94.66;102692.47;5093148;28;20401;-35
2021/11/15 06:53:24;;;;;;;32.77;23.87;;;;;;;6.58;94.90;102687.09;5091095;28;20040;-35
2021/11/15 06:55:49;;;;;;;38.60;26.00;;;;;;;6.61;94.31;102705.59;5093300;28;20397;-34
2021/11/15 06:58:14;;;;;;;31.97;23.90;;;;;;;6.55;95.09;102687.41;5093055;28;20024;-34
2021/11/15 07:00:40;;;;;;;31.23;24.10;;;;;;;6.60;94.15;102698.53;5093976;28;20029;-34
2021/11/15 07:03:05;;;;;;;33.13;24.30;;;;;;;6.66;94.68;102711.34;5093011;28;20104;-35
2021/11/15 07:05:31;;;;;;;34.90;25.17;;;;;;;6.63;94.78;102717.84;5093067;28;20111;-35
2021/11/15 07:07:56;;;;;;;34.93;25.67;;;;;;;6.58;95.36;102703.22;5091699;28;20520;-34
2021/11/15 07:10:23;;;;;;;33.80;24.55;;;;;;;6.65;95.24;102712.34;5093065;28;20114;-35
2021/11/15 07:12:48;;;;;;;;;;;;;;;6.73;94.63;102720.44;5092165;28;20468;-35
2021/11/15 07:15:16;;;;;;;35.15;24.52;;;;;;;6.66;94.62;102720.25;5092934;28;20006;-35
2021/11/15 07:17:42;;;;;;;35.45;24.48;;;;;;;6.67;95.06;102718.38;5092500;28;20038;-35
2021/11/15 07:20:08;;;;;;;34.20;25.30;;;;;;;6.61;95.17;102706.44;5093375;28;20432;-35
2021/11/15 07:22:33;;;;;;;;;;;;;;;6.76;95.29;102717.44;5093092;28;20115;-35
2021/11/15 07:24:59;;;;;;;36.50;25.33;;;;;;;6.60;95.29;102706.59;5092792;28;20003;-35
2021/11/15 07:27:25;;;;;;;33.08;24.63;;;;;;;6.62;95.18;102720.72;5092667;28;20028;-35
2021/11/15 07:29:50;;;;;;;36.92;25.25;;;;;;;6.61;95.00;102724.41;5092830;28;20032;-35
2021/11/15 07:32:16;;;;;;;33.13;24.13;;;;;;;6.59;95.04;102719.19;5093579;28;20035;-34
2021/11/15 07:34:42;;;;;;;35.97;25.37;;;;;;;6.26;95.08;102685.06;5097324;28;20032;-35
2021/11/15 07:37:08;;;;;;;34.95;25.88;;;;;;;6.54;95.63;102717.97;5096333;28;20115;-35
2021/11/15 07:39:42;;;;;;;32.65;23.77;;;;;;;6.48;95.70;102713.22;5096248;28;20051;-35
2021/11/15 07:42:11;;;;;;;39.63;27.15;;;;;;;6.25;96.14;102684.22;5096795;28;20500;-34
2021/11/15 07:44:37;;;;;;;37.88;26.10;;;;;;;6.46;95.18;102716.09;5096376;28;20528;-34
2021/11/15 07:47:04;;;;;;;37.40;25.42;;;;;;;6.39;95.33;102715.88;5096479;28;20103;-34
2021/11/15 07:49:29;;;;;;;39.30;26.58;;;;;;;6.42;95.61;102715.56;5096874;28;20028;-35
2021/11/15 07:51:55;;;;;;;36.87;26.17;;;;;;;6.40;95.69;102704.13;5095830;28;20047;-34
2021/11/15 07:54:20;;;;;;;34.57;24.93;;;;;;;6.49;95.64;102714.91;5096266;28;20028;-34
2021/11/15 07:56:45;;;;;;;40.33;27.83;;;;;;;6.45;95.68;102719.78;5096824;28;20070;-34
2021/11/15 07:59:11;;;;;;;36.97;24.80;;;;;;;6.48;96.41;102718.59;5096347;28;20020;-35
2021/11/15 08:01:36;;;;;;;38.50;26.73;;;;;;;6.41;95.26;102707.66;5096128;28;20065;-34
2021/11/15 08:04:02;;;;;;;36.67;26.80;;;;;;;6.47;95.26;102728.50;5096617;28;20036;-35
2021/11/15 08:06:27;;;;;;;39.78;28.70;;;;;;;6.41;95.94;102732.69;5095590;28;20082;-34
2021/11/15 08:08:52;;;;;;;38.33;27.60;;;;;;;6.42;95.84;102733.53;5096438;28;20051;-35
2021/11/15 08:11:18;;;;;;;38.97;28.37;;;;;;;6.43;96.02;102725.28;5096385;28;20040;-34
2021/11/15 08:13:44;;;;;;;39.17;27.27;;;;;;;6.45;95.27;102728.69;5094275;28;20109;-35
2021/11/15 08:16:09;;;;;;;41.95;30.17;;;;;;;6.37;95.21;102720.56;5095745;28;20063;-34
2021/11/15 08:18:38;;;;;;;37.47;27.90;;;;;;;6.39;96.10;102721.25;5095318;28;20028;-34
2021/11/15 08:21:08;;;;;;;39.72;28.33;;;;;;;6.42;95.73;102729.00;5095679;28;20126;-35
2021/11/15 08:23:34;;;;;;;40.85;31.27;;;;;;;6.38;95.69;102726.78;5095646;28;20115;-35
2021/11/15 08:26:28;;;;;;;42.58;30.52;;;;;;;6.32;96.38;102704.06;5095688;28;20107;-34
2021/11/15 08:29:05;;;;;;;38.00;28.55;;;;;;;6.36;95.93;102702.75;5096004;28;20051;-34
2021/11/15 08:31:31;;;;;;;40.83;29.88;;;;;;;6.38;96.14;102706.13;5096321;28;20031;-34
2021/11/15 08:33:57;;;;;;;40.40;29.20;;;;;;;6.39;96.66;102712.31;5096239;28;20111;-35
2021/11/15 08:36:23;;;;;;;41.90;29.73;;;;;;;6.36;96.32;102701.91;5094822;28;20031;-35
2021/11/15 08:38:50;;;;;;;39.47;28.42;;;;;;;6.39;96.92;102715.88;5095341;28;20024;-34
2021/11/15 08:41:24;;;;;;;46.05;32.20;;;;;;;6.39;96.63;102706.94;5094971;28;20567;-35
2021/11/15 08:43:52;;;;;;;38.95;28.17;;;;;;;6.39;96.98;102710.50;5094208;28;20032;-35
2021/11/15 08:46:19;;;;;;;38.95;28.67;;;;;;;6.35;96.51;102713.66;5094937;28;20030;-35
2021/11/15 08:48:46;;;;;;;38.33;27.50;;;;;;;6.32;96.68;102696.00;5095104;28;20464;-34
2021/11/15 08:51:13;;;;;;;38.60;26.60;;;;;;;6.40;96.82;102709.50;5094007;28;20043;-35
2021/11/15 08:53:40;;;;;;;37.97;27.20;;;;;;;6.47;96.83;102715.06;5094845;28;20028;-35
2021/11/15 08:56:06;;;;;;;37.88;27.20;;;;;;;6.47;96.02;102716.94;5095539;28;20034;-34
2021/11/15 08:58:31;;;;;;;39.65;27.33;;;;;;;6.50;96.54;102708.56;5095163;28;20032;-35
2021/11/15 09:00:58;;;;;;;42.63;28.90;;;;;;;6.48;96.45;102714.06;5094998;28;20353;-34
2021/11/15 09:03:23;;;;;;;42.47;30.90;;;;;;;6.38;97.01;102719.53;5094904;28;20540;-35
2021/11/15 09:05:50;;;;;;;41.03;27.50;;;;;;;6.42;96.96;102718.25;5094611;28;20115;-35
2021/11/15 09:08:17;;;;;;;38.05;26.13;;;;;;;6.40;97.53;102719.41;5094964;28;20384;-34
2021/11/15 09:10:42;;;;;;;38.83;27.65;;;;;;;6.40;97.85;102730.16;5094450;28;20032;-34
2021/11/15 09:13:08;;;;;;;44.70;28.88;;;;;;;6.36;98.14;102713.50;5095277;28;20040;-34
2021/11/15 09:15:33;;;;;;;39.63;26.87;;;;;;;6.41;97.85;102731.84;5095039;28;20487;-34
2021/11/15 09:17:59;;;;;;;42.00;27.90;;;;;;;6.32;97.36;102733.63;5094877;28;20165;-34
2021/11/15 09:20:25;;;;;;;39.67;27.80;;;;;;;6.28;98.26;102728.72;5094719;28;20024;-34
2021/11/15 09:22:52;;;;;;;;;;;;;;;6.35;97.99;102719.88;5094779;28;20036;-34
2021/11/15 09:25:17;;;;;;;41.08;26.33;;;;;;;6.20;97.85;102689.22;5094579;28;19912;-35
2021/11/15 09:27:42;;;;;;;36.13;24.53;;;;;;;6.35;98.24;102714.50;5094543;28;20031;-34
2021/11/15 09:30:10;;;;;;;37.33;25.43;;;;;;;6.37;98.42;102712.50;5095307;28;20052;-35
2021/11/15 09:32:36;;;;;;;37.08;25.65;;;;;;;6.40;97.93;102709.50;5094650;28;20078;-35
2021/11/15 09:35:02;;;;;;;37.50;25.67;;;;;;;6.34;97.74;102707.44;5094996;28;20032;-35
2021/11/15 09:37:28;;;;;;;36.00;24.52;;;;;;;6.44;97.82;102721.63;5094953;28;20405;-34
2021/11/15 09:39:55;;;;;;;36.13;23.98;;;;;;;6.34;98.19;102718.16;5094498;28;20055;-35
2021/11/15 09:42:21;;;;;;;36.33;23.08;;;;;;;6.41;97.62;102713.88;5093928;28;20024;-34
2021/11/15 09:44:46;;;;;;;35.70;24.52;;;;;;;6.43;98.15;102713.69;5094509;28;20031;-35
2021/11/15 09:47:12;;;;;;;39.33;24.60;;;;;;;6.45;98.65;102719.78;5094164;28;20502;-35
2021/11/15 09:49:38;;;;;;;37.58;25.23;;;;;;;6.30;97.63;102698.03;5094714;28;20254;-35
2021/11/15 09:52:06;;;;;;;34.72;24.25;;;;;;;6.48;98.62;102722.13;5094109;28;20380;-34
2021/11/15 09:54:31;;;;;;;35.92;24.10;;;;;;;6.44;97.70;102721.63;5093898;28;20127;-34
2021/11/15 09:56:57;;;;;;;40.30;27.55;;;;;;;6.42;97.74;102723.59;5093726;28;20112;-35
2021/11/15 09:59:28;;;;;;;38.22;25.10;;;;;;;6.44;98.44;102720.75;5094304;28;20486;-35
2021/11/15 10:01:54;;;;;;;35.47;24.27;;;;;;;6.51;98.37;102719.13;5094758;28;20028;-35
2021/11/15 10:04:21;;;;;;;39.20;25.98;;;;;;;6.39;98.35;102699.75;5093417;28;20178;-35
2021/11/15 10:06:48;;;;;;;39.90;27.73;;;;;;;6.43;98.37;102711.00;5093879;28;20032;-35
2021/11/15 10:09:23;;;;;;;38.35;25.10;;;;;;;6.46;98.48;102718.78;5094406;28;20024;-35
2021/11/15 10:11:53;;;;;;;38.45;25.65;;;;;;;6.36;98.10;102705.44;5093833;28;20073;-35
2021/11/15 10:14:20;;;;;;;38.40;26.42;;;;;;;6.36;98.78;102704.59;5093812;28;20067;-35
2021/11/15 10:16:59;;;;;;;35.88;23.70;;;;;;;6.41;98.10;102713.88;5094329;28;20054;-35
2021/11/15 10:19:25;;;;;;;33.60;22.17;;;;;;;6.47;98.59;102719.63;5093663;28;20357;-35
2021/11/15 10:21:50;;;;;;;;;;;;;;;6.55;98.87;102717.00;5093691;28;20104;-35
2021/11/15 10:24:27;;;;;;;29.23;19.48;;;;;;;6.53;98.67;102711.75;5094000;28;19939;-35
2021/11/15 10:27:01;;;;;;;31.55;19.42;;;;;;;6.43;98.85;102694.88;5094072;28;20028;-35
2021/11/15 10:29:33;;;;;;;31.65;19.38;;;;;;;6.37;97.89;102677.56;5093515;28;20032;-35
2021/11/15 10:32:03;;;;;;;29.92;18.88;;;;;;;6.51;98.47;102704.84;5093381;28;20030;-35
2021/11/15 10:34:36;;;;;;;31.80;18.83;;;;;;;6.48;99.19;102691.72;5093390;28;20543;-35
2021/11/15 10:37:10;;;;;;;28.80;18.75;;;;;;;6.54;98.59;102697.34;5093582;28;20502;-35
2021/11/15 10:39:50;;;;;;;29.00;18.05;;;;;;;6.58;98.25;102695.97;5093599;28;20111;-35
2021/11/15 10:42:37;;;;;;;33.65;19.00;;;;;;;6.60;98.44;102685.09;5093606;28;20089;-35
2021/11/15 10:45:07;;;;;;;28.55;17.85;;;;;;;6.67;98.80;102686.97;5093426;28;20032;-35
2021/11/15 10:48:01;;;;;;;29.35;19.45;;;;;;;6.50;98.23;102652.13;5093482;28;20039;-35
2021/11/15 10:50:44;;;;;;;29.55;18.88;;;;;;;6.68;98.66;102677.06;5093871;28;20047;-35
2021/11/15 10:53:17;;;;;;;35.88;23.73;;;;;;;6.55;98.86;102668.59;5094011;28;20043;-35
2021/11/15 10:56:04;;;;;;;41.40;26.60;;;;;;;6.50;99.23;102668.25;5092902;28;20028;-35
2021/11/15 10:58:40;;;;;;;44.35;27.38;;;;;;;6.55;98.88;102682.88;5094028;28;20435;-35
2021/11/15 11:01:06;;;;;;;42.28;26.20;;;;;;;6.51;99.49;102692.25;5093587;28;20054;-35
2021/11/15 11:03:32;;;;;;;40.92;26.50;;;;;;;6.53;99.80;102694.78;5093515;28;20166;-35
2021/11/15 11:06:03;;;;;;;39.05;25.45;;;;;;;6.53;100.00;102681.34;5092687;28;20041;-35
2021/11/15 11:08:37;;;;;;;41.28;26.85;;;;;;;6.53;99.19;102694.78;5095890;28;20020;-35
2021/11/15 11:11:10;;;;;;;40.63;26.00;;;;;;;6.50;99.70;102692.44;5097682;28;20058;-35
2021/11/15 11:13:59;;;;;;;41.63;26.90;;;;;;;6.50;100.00;102684.38;5097672;28;20044;-35
2021/11/15 11:16:44;;;;;;;44.78;28.17;;;;;;;6.50;99.73;102690.59;5097252;28;20027;-35
2021/11/15 11:24:17;;;;;;;42.15;27.38;;;;;;;6.49;100.00;102678.16;5096935;28;20046;-35